KPDX/PDX METAR and TAF weather

Enter ICAO airport designator
Station Type Date Time Source
KPDX METAR 2019/12/12 16:53 UTC NOAA

KPDX 121653Z 12008KT 10SM FEW015 FEW055 SCT100 OVC200 08/07 A2998 RMK AO2 SLP151 T00830067


Station Type Date Time Source
KPDX Decoded METAR 2019/12/12 16:53 UTC NOAA

PORTLAND INTERNATIONAL AIRPORT, OR, United States (KPDX) 45-35N 122-36W 7M
Dec 12, 2019 - 11:53 AM EST / 2019.12.12 1653 UTC
Wind: from the ESE (120 degrees) at 9 MPH (8 KT):0
Visibility: 10 mile(s):0
Sky conditions: overcast
Temperature: 46.9 F (8.3 C)
Dew Point: 44.1 F (6.7 C)
Relative Humidity: 89%
Pressure (altimeter): 29.98 in. Hg (1015 hPa)
ob: KPDX 121653Z 12008KT 10SM FEW015 FEW055 SCT100 OVC200 08/07 A2998 RMK AO2 SLP151 T00830067
cycle: 17

Station Type Date Time Source
KPDX TAF 2019/12/12 16:42 UTC NOAA

TAF
AMD KPDX 121540Z 1216/1312 18010KT P6SM VCSH SCT025 BKN060 OVC120
FM121700 17010KT 4SM SHRA BR SCT008 BKN015 OVC040
FM122000 22010KT P6SM -SHRA SCT025 BKN040
FM130500 21007KT 6SM BR VCSH SCT015 BKN025
FM130900 20004KT 5SM MIFG FEW002 BKN025

Example: see airport list